createdAt,value
2018-07-12T00:03:22.193Z,8.63
2018-07-12T00:07:55.481Z,7.78
2018-07-12T00:12:28.501Z,8.15
2018-07-12T00:17:01.728Z,7.80
2018-07-12T00:21:34.777Z,8.30
2018-07-12T00:26:07.785Z,8.10
2018-07-12T00:30:40.893Z,7.78
2018-07-12T00:35:14.005Z,7.97
2018-07-12T00:39:47.040Z,8.93
2018-07-12T00:44:20.121Z,8.03
2018-07-12T00:48:53.165Z,7.97
2018-07-12T00:53:26.204Z,8.03
2018-07-12T00:57:59.281Z,9.15
2018-07-12T01:02:32.665Z,8.50
2018-07-12T01:07:05.718Z,8.63
2018-07-12T01:11:38.768Z,8.53
2018-07-12T01:16:12.124Z,8.40
2018-07-12T01:20:45.145Z,8.10
2018-07-12T01:25:18.181Z,7.60
2018-07-12T01:29:51.393Z,7.42
2018-07-12T01:34:24.385Z,7.15
2018-07-12T01:38:57.474Z,7.03
2018-07-12T01:43:30.493Z,7.85
2018-07-12T01:48:03.593Z,7.25
2018-07-12T01:52:36.590Z,6.85
2018-07-12T01:57:09.677Z,6.62
2018-07-12T02:01:42.807Z,7.20
2018-07-12T02:06:15.965Z,6.53
2018-07-12T02:10:48.973Z,6.42
2018-07-12T02:15:22.016Z,6.35
2018-07-12T02:19:55.382Z,6.45
2018-07-12T02:24:28.427Z,6.85
2018-07-12T02:29:01.509Z,6.50
2018-07-12T02:33:34.616Z,7.05
2018-07-12T02:38:08.052Z,7.50
2018-07-12T02:42:41.089Z,6.40
2018-07-12T02:47:14.213Z,7.20
2018-07-12T02:51:47.296Z,6.55
2018-07-12T02:56:20.322Z,6.70
2018-07-12T03:00:53.709Z,6.58
2018-07-12T03:05:26.753Z,7.00
2018-07-12T03:09:59.800Z,6.67
2018-07-12T03:14:33.045Z,7.10
2018-07-12T03:19:06.161Z,7.55
2018-07-12T03:23:39.457Z,6.92
2018-07-12T03:28:12.569Z,6.90
2018-07-12T03:32:45.678Z,6.72
2018-07-12T03:37:18.769Z,7.00
2018-07-12T03:41:51.757Z,7.10
2018-07-12T03:46:25.073Z,7.05
2018-07-12T03:50:58.058Z,6.58
2018-07-12T03:55:31.332Z,6.60
2018-07-12T04:00:04.233Z,7.12
2018-07-12T04:04:37.415Z,6.60
2018-07-12T04:09:10.514Z,6.45
2018-07-12T04:13:43.585Z,6.58
2018-07-12T04:18:16.933Z,7.72
2018-07-12T04:22:49.885Z,7.05
2018-07-12T04:27:23.305Z,6.53
2018-07-12T04:31:56.350Z,6.50
2018-07-12T04:36:29.484Z,6.95
2018-07-12T04:41:02.558Z,7.28
2018-07-12T04:45:35.682Z,6.40
2018-07-12T04:50:08.678Z,7.00
2018-07-12T04:54:41.726Z,7.15
2018-07-12T04:59:15.437Z,6.22
2018-07-12T05:03:48.489Z,6.47
2018-07-12T05:08:21.609Z,6.80
2018-07-12T05:12:54.673Z,6.70
2018-07-12T05:17:27.688Z,6.97
2018-07-12T05:22:00.869Z,6.70
2018-07-12T05:26:34.032Z,7.20
2018-07-12T05:31:07.261Z,7.62
2018-07-12T05:35:41.670Z,7.25
2018-07-12T05:40:16.069Z,7.30
2018-07-12T05:44:50.684Z,7.22
2018-07-12T05:49:25.096Z,7.67
2018-07-12T05:53:59.543Z,6.95
2018-07-12T05:58:34.014Z,6.80
2018-07-12T06:03:08.380Z,7.50
2018-07-12T06:07:42.693Z,8.13
2018-07-12T06:12:17.118Z,6.75
2018-07-12T06:16:51.498Z,7.05
2018-07-12T06:21:25.949Z,6.78
2018-07-12T06:26:00.478Z,6.67
2018-07-12T06:30:34.878Z,6.70
2018-07-12T06:35:09.405Z,7.83
2018-07-12T06:39:43.665Z,7.10
2018-07-12T06:44:18.002Z,6.78
2018-07-12T06:48:52.617Z,7.08
2018-07-12T06:53:27.152Z,7.78
2018-07-12T06:58:01.918Z,8.75
2018-07-12T07:02:36.369Z,8.85
2018-07-12T07:07:11.293Z,9.20
2018-07-12T07:11:45.514Z,8.98
2018-07-12T07:16:19.746Z,8.53
2018-07-12T07:20:54.506Z,8.33
2018-07-12T07:25:29.216Z,8.40
2018-07-12T07:30:03.813Z,7.90
2018-07-12T07:34:38.313Z,7.95
2018-07-12T07:39:12.820Z,7.45
2018-07-12T07:43:47.303Z,7.25
2018-07-12T07:48:22.251Z,7.53
2018-07-12T07:52:57.096Z,6.83
2018-07-12T07:57:31.487Z,7.10
2018-07-12T08:02:05.917Z,6.67
2018-07-12T08:06:40.277Z,6.58
2018-07-12T08:11:14.790Z,7.12
2018-07-12T08:15:49.224Z,5.72
2018-07-12T08:20:24.201Z,6.03
2018-07-12T08:24:58.629Z,5.42
2018-07-12T08:29:33.821Z,5.42
2018-07-12T08:34:07.851Z,5.47
2018-07-12T08:38:41.965Z,6.45
2018-07-12T08:43:17.504Z,5.75
2018-07-12T08:47:51.818Z,5.97
2018-07-12T08:52:26.047Z,5.80
2018-07-12T08:57:01.361Z,7.28
2018-07-12T09:01:35.708Z,6.22
2018-07-12T09:06:10.849Z,6.47
2018-07-12T09:10:45.501Z,5.37
2018-07-12T09:15:21.698Z,5.12
2018-07-12T09:19:56.242Z,5.00
2018-07-12T09:24:32.010Z,4.97
2018-07-12T09:29:06.968Z,5.30
2018-07-12T09:33:42.237Z,5.22
2018-07-12T09:38:42.092Z,5.40
2018-07-12T09:43:16.633Z,5.10
2018-07-12T09:47:50.953Z,4.80
2018-07-12T09:52:30.457Z,4.47
2018-07-12T09:57:16.266Z,3.75
2018-07-12T10:01:56.829Z,4.05
2018-07-12T10:06:32.573Z,4.33
2018-07-12T10:11:08.578Z,5.10
2018-07-12T10:15:44.009Z,5.67
2018-07-12T10:20:18.424Z,5.20
2018-07-12T10:24:52.833Z,5.55
2018-07-12T10:29:27.898Z,5.47
2018-07-12T10:34:02.737Z,5.78
2018-07-12T10:38:36.925Z,5.05
2018-07-12T10:43:11.204Z,5.17
2018-07-12T10:47:45.789Z,4.80
2018-07-12T10:52:20.034Z,4.25
2018-07-12T10:56:55.184Z,4.37
2018-07-12T11:01:30.553Z,4.55
2018-07-12T11:06:05.268Z,3.90
2018-07-12T11:10:39.966Z,4.22
2018-07-12T11:15:15.053Z,4.30
2018-07-12T11:19:50.408Z,4.35
2018-07-12T11:24:25.175Z,4.50
2018-07-12T11:29:00.498Z,4.53
2018-07-12T11:33:40.854Z,4.37
2018-07-12T11:38:15.085Z,4.65
2018-07-12T11:42:49.768Z,4.60
2018-07-12T11:47:25.776Z,4.28
2018-07-12T11:52:00.222Z,4.22
2018-07-12T11:56:34.611Z,4.45
2018-07-12T12:01:08.940Z,4.53
2018-07-12T12:05:42.823Z,4.35
2018-07-12T12:10:17.644Z,4.40
2018-07-12T12:14:53.422Z,5.17
2018-07-12T12:19:27.760Z,5.65
2018-07-12T12:24:02.749Z,6.15
2018-07-12T12:28:36.933Z,6.35
2018-07-12T12:33:11.325Z,6.78
2018-07-12T12:37:46.325Z,7.00
2018-07-12T12:42:20.741Z,6.87
2018-07-12T12:46:54.953Z,6.78
2018-07-12T12:51:30.241Z,7.12
2018-07-12T12:56:04.643Z,6.00
2018-07-12T13:00:38.794Z,6.80
2018-07-12T13:05:13.893Z,6.17
2018-07-12T13:09:48.153Z,6.17
2018-07-12T13:14:22.655Z,6.28
2018-07-12T13:18:58.570Z,5.87
2018-07-12T13:23:33.457Z,7.55
2018-07-12T13:28:08.343Z,7.85
2018-07-12T13:32:44.046Z,7.55
2018-07-12T13:37:18.355Z,7.58
2018-07-12T13:41:53.006Z,6.97
2018-07-12T13:46:27.426Z,6.90
2018-07-12T13:51:01.700Z,7.15
2018-07-12T13:55:37.374Z,6.85
2018-07-12T14:00:11.742Z,7.62
2018-07-12T14:04:46.805Z,7.62
2018-07-12T14:09:21.004Z,7.62
2018-07-12T14:13:55.682Z,7.92
2018-07-12T14:18:31.015Z,8.63
2018-07-12T14:23:05.983Z,8.03
2018-07-12T14:27:41.323Z,7.92
2018-07-12T14:32:16.039Z,8.38
2018-07-12T14:36:50.297Z,8.85
2018-07-12T14:41:24.494Z,8.78
2018-07-12T14:45:59.417Z,11.05
2018-07-12T14:50:34.057Z,7.90
2018-07-12T14:55:09.568Z,8.15
2018-07-12T14:59:43.806Z,7.58
2018-07-12T15:04:18.441Z,8.05
2018-07-12T15:08:52.638Z,7.80
2018-07-12T15:13:26.840Z,8.03
2018-07-12T15:18:01.490Z,8.98
2018-07-12T15:22:36.261Z,8.80
2018-07-12T15:27:11.545Z,7.53
2018-07-12T15:31:46.494Z,8.13
2018-07-12T15:36:20.740Z,8.03
2018-07-12T15:40:54.950Z,8.43
2018-07-12T15:45:30.351Z,7.78
2018-07-12T15:50:05.345Z,8.38
2018-07-12T15:54:40.153Z,8.23
2018-07-12T15:59:14.664Z,9.63
2018-07-12T16:03:49.021Z,8.58
2018-07-12T16:08:25.798Z,8.25
2018-07-12T16:13:00.221Z,8.20
2018-07-12T16:17:35.289Z,9.80
2018-07-12T16:22:10.811Z,9.88
2018-07-12T16:26:45.833Z,9.65
2018-07-12T16:31:20.295Z,10.10
2018-07-12T16:35:54.683Z,9.40
2018-07-12T16:40:30.134Z,9.73
2018-07-12T16:45:06.410Z,9.93
2018-07-12T16:49:41.130Z,10.03
2018-07-12T16:54:15.709Z,9.93
2018-07-12T16:58:51.085Z,11.43
2018-07-12T17:03:25.363Z,9.38
2018-07-12T17:08:00.629Z,8.75
2018-07-12T17:12:34.975Z,8.78
2018-07-12T17:17:10.003Z,9.03
2018-07-12T17:21:45.034Z,9.35
2018-07-12T17:26:19.279Z,8.95
2018-07-12T17:30:54.440Z,9.03
2018-07-12T17:35:28.804Z,10.00
2018-07-12T17:40:03.098Z,8.83
2018-07-12T17:44:38.494Z,9.03
2018-07-12T17:49:13.177Z,8.68
2018-07-12T17:53:48.708Z,9.98
2018-07-12T17:58:22.917Z,8.90
2018-07-12T18:02:57.507Z,9.15
2018-07-12T18:07:32.756Z,8.50
2018-07-12T18:12:07.091Z,8.10
2018-07-12T18:16:42.115Z,8.90
2018-07-12T18:21:16.781Z,8.20
2018-07-12T18:25:51.138Z,8.68
2018-07-12T18:30:25.504Z,8.60
2018-07-12T18:34:59.913Z,8.98
2018-07-12T18:39:34.857Z,9.08
2018-07-12T18:44:09.370Z,9.83
2018-07-12T18:48:44.166Z,9.85
2018-07-12T18:53:18.489Z,10.50
2018-07-12T18:57:52.910Z,9.88
2018-07-12T19:02:27.107Z,10.35
2018-07-12T19:07:01.446Z,10.10
2018-07-12T19:11:35.705Z,10.10
2018-07-12T19:16:10.054Z,10.38
2018-07-12T19:20:44.526Z,9.90
2018-07-12T19:25:19.389Z,10.10
2018-07-12T19:29:54.170Z,10.60
2018-07-12T19:34:28.429Z,10.40
2018-07-12T19:39:02.854Z,11.38
2018-07-12T19:43:39.425Z,10.58
2018-07-12T19:48:13.850Z,11.25
2018-07-12T19:52:48.990Z,12.03
2018-07-12T19:57:23.367Z,11.53
2018-07-12T20:01:57.987Z,10.95
2018-07-12T20:06:32.594Z,54.80
2018-07-12T20:11:07.457Z,13.83
2018-07-12T20:15:41.842Z,29.52
2018-07-12T20:20:16.797Z,20.05
2018-07-12T20:24:52.746Z,17.87
2018-07-12T20:29:27.018Z,54.40
2018-07-12T20:34:01.868Z,15.58
2018-07-12T20:38:36.711Z,17.42
2018-07-12T20:43:15.926Z,24.10
2018-07-12T20:47:50.193Z,26.10
2018-07-12T20:52:24.498Z,16.07
2018-07-12T20:56:58.850Z,41.08
2018-07-12T21:01:33.250Z,17.77
2018-07-12T21:06:08.707Z,19.65
2018-07-12T21:10:44.130Z,18.42
2018-07-12T21:15:18.354Z,14.78
2018-07-12T21:19:52.665Z,15.85
2018-07-12T21:24:27.023Z,17.90
2018-07-12T21:29:02.874Z,31.60
2018-07-12T21:33:37.982Z,22.17
2018-07-12T21:38:12.901Z,28.07
2018-07-12T21:42:47.850Z,21.37
2018-07-12T21:47:22.089Z,54.30
2018-07-12T21:51:56.932Z,19.30
2018-07-12T21:56:31.415Z,19.77
2018-07-12T22:01:05.915Z,20.57
2018-07-12T22:05:40.405Z,19.48
2018-07-12T22:10:15.098Z,18.07
2018-07-12T22:14:49.727Z,18.52
2018-07-12T22:19:25.701Z,19.57
2018-07-12T22:24:01.145Z,17.87
2018-07-12T22:28:35.726Z,17.42
2018-07-12T22:33:10.654Z,18.70
2018-07-12T22:37:45.284Z,18.52
2018-07-12T22:42:19.774Z,17.37
2018-07-12T22:46:54.894Z,18.92
2018-07-12T22:51:29.709Z,19.37
2018-07-12T22:56:04.769Z,18.37
2018-07-12T23:00:40.329Z,17.15
2018-07-12T23:05:15.926Z,19.75
2018-07-12T23:09:50.165Z,21.37
2018-07-12T23:14:24.919Z,18.73
2018-07-12T23:18:59.251Z,18.80
2018-07-12T23:23:33.729Z,19.00
2018-07-12T23:28:08.757Z,18.65
2018-07-12T23:32:42.759Z,19.67
2018-07-12T23:37:17.418Z,18.50
2018-07-12T23:41:51.731Z,19.57
2018-07-12T23:46:26.382Z,19.17
2018-07-12T23:51:01.313Z,18.67
2018-07-12T23:55:35.704Z,18.60
